sensor_id;sensor_type;location;lat;lon;timestamp;temperature;humidity
12130;DHT22;6128;59.340;18.040;2023-08-17T00:01:42;18.50;99.90
12130;DHT22;6128;59.340;18.040;2023-08-17T00:04:10;18.50;99.90
12130;DHT22;6128;59.340;18.040;2023-08-17T00:06:37;18.50;99.90
12130;DHT22;6128;59.340;18.040;2023-08-17T00:09:04;18.40;99.90
12130;DHT22;6128;59.340;18.040;2023-08-17T00:11:32;18.40;99.90
12130;DHT22;6128;59.340;18.040;2023-08-17T00:13:59;18.40;99.90
12130;DHT22;6128;59.340;18.040;2023-08-17T00:16:28;18.30;99.90
12130;DHT22;6128;59.340;18.040;2023-08-17T00:18:56;18.30;99.90
12130;DHT22;6128;59.340;18.040;2023-08-17T00:21:23;18.30;99.90
12130;DHT22;6128;59.340;18.040;2023-08-17T00:23:50;18.20;99.90
12130;DHT22;6128;59.340;18.040;2023-08-17T00:26:17;18.20;99.90
12130;DHT22;6128;59.340;18.040;2023-08-17T00:28:44;18.10;99.90
12130;DHT22;6128;59.340;18.040;2023-08-17T00:31:11;18.10;99.90
12130;DHT22;6128;59.340;18.040;2023-08-17T00:33:39;18.00;99.90
12130;DHT22;6128;59.340;18.040;2023-08-17T00:36:06;18.00;99.90
12130;DHT22;6128;59.340;18.040;2023-08-17T00:38:34;18.00;99.90
12130;DHT22;6128;59.340;18.040;2023-08-17T00:41:01;17.90;99.90
12130;DHT22;6128;59.340;18.040;2023-08-17T00:43:28;17.90;99.90
12130;DHT22;6128;59.340;18.040;2023-08-17T00:45:55;17.90;99.90
12130;DHT22;6128;59.340;18.040;2023-08-17T00:48:22;17.90;99.90
12130;DHT22;6128;59.340;18.040;2023-08-17T00:50:52;17.80;99.90
12130;DHT22;6128;59.340;18.040;2023-08-17T00:53:20;17.80;99.90
12130;DHT22;6128;59.340;18.040;2023-08-17T00:55:47;17.80;99.90
12130;DHT22;6128;59.340;18.040;2023-08-17T00:58:15;17.70;99.90
12130;DHT22;6128;59.340;18.040;2023-08-17T01:00:42;17.70;99.90
12130;DHT22;6128;59.340;18.040;2023-08-17T01:03:09;17.70;99.90
12130;DHT22;6128;59.340;18.040;2023-08-17T01:05:36;17.70;99.90
12130;DHT22;6128;59.340;18.040;2023-08-17T01:08:05;17.60;99.90
12130;DHT22;6128;59.340;18.040;2023-08-17T01:10:37;17.60;99.90
12130;DHT22;6128;59.340;18.040;2023-08-17T01:13:10;17.60;99.90
12130;DHT22;6128;59.340;18.040;2023-08-17T01:15:44;17.60;99.90
12130;DHT22;6128;59.340;18.040;2023-08-17T01:18:20;17.60;99.90
12130;DHT22;6128;59.340;18.040;2023-08-17T01:20:49;17.50;99.90
12130;DHT22;6128;59.340;18.040;2023-08-17T01:23:18;17.50;99.90
12130;DHT22;6128;59.340;18.040;2023-08-17T01:25:45;17.50;99.90
12130;DHT22;6128;59.340;18.040;2023-08-17T01:28:12;17.50;99.90
12130;DHT22;6128;59.340;18.040;2023-08-17T01:30:44;17.50;99.90
12130;DHT22;6128;59.340;18.040;2023-08-17T01:33:16;17.50;99.90
12130;DHT22;6128;59.340;18.040;2023-08-17T01:35:48;17.50;99.90
12130;DHT22;6128;59.340;18.040;2023-08-17T01:38:21;17.50;99.90
12130;DHT22;6128;59.340;18.040;2023-08-17T01:40:50;17.60;99.90
12130;DHT22;6128;59.340;18.040;2023-08-17T01:43:20;17.60;99.90
12130;DHT22;6128;59.340;18.040;2023-08-17T01:45:47;17.60;99.90
12130;DHT22;6128;59.340;18.040;2023-08-17T01:48:14;17.60;99.90
12130;DHT22;6128;59.340;18.040;2023-08-17T01:50:41;17.60;99.90
12130;DHT22;6128;59.340;18.040;2023-08-17T01:53:08;17.60;99.90
12130;DHT22;6128;59.340;18.040;2023-08-17T01:55:38;17.60;99.90
12130;DHT22;6128;59.340;18.040;2023-08-17T01:58:05;17.70;99.90
12130;DHT22;6128;59.340;18.040;2023-08-17T02:00:32;17.70;99.90
12130;DHT22;6128;59.340;18.040;2023-08-17T02:02:59;17.70;99.90
12130;DHT22;6128;59.340;18.040;2023-08-17T02:05:26;17.70;99.90
12130;DHT22;6128;59.340;18.040;2023-08-17T02:07:54;17.70;99.90
12130;DHT22;6128;59.340;18.040;2023-08-17T02:10:21;17.70;99.90
12130;DHT22;6128;59.340;18.040;2023-08-17T02:12:50;17.70;99.90
12130;DHT22;6128;59.340;18.040;2023-08-17T02:15:17;17.70;99.90
12130;DHT22;6128;59.340;18.040;2023-08-17T02:17:44;17.70;99.90
12130;DHT22;6128;59.340;18.040;2023-08-17T02:20:11;17.70;99.90
12130;DHT22;6128;59.340;18.040;2023-08-17T02:22:39;17.80;99.90
12130;DHT22;6128;59.340;18.040;2023-08-17T02:25:07;17.80;99.90
12130;DHT22;6128;59.340;18.040;2023-08-17T02:27:35;17.80;99.90
12130;DHT22;6128;59.340;18.040;2023-08-17T02:30:04;17.70;99.90
12130;DHT22;6128;59.340;18.040;2023-08-17T02:32:31;17.70;99.90
12130;DHT22;6128;59.340;18.040;2023-08-17T02:34:58;17.80;99.90
12130;DHT22;6128;59.340;18.040;2023-08-17T02:37:25;17.80;99.90
12130;DHT22;6128;59.340;18.040;2023-08-17T02:39:52;17.80;99.90
12130;DHT22;6128;59.340;18.040;2023-08-17T02:42:19;17.80;99.90
12130;DHT22;6128;59.340;18.040;2023-08-17T02:44:47;17.80;99.90
12130;DHT22;6128;59.340;18.040;2023-08-17T02:47:15;17.80;99.90
12130;DHT22;6128;59.340;18.040;2023-08-17T02:49:42;17.80;99.90
12130;DHT22;6128;59.340;18.040;2023-08-17T02:52:09;17.90;99.90
12130;DHT22;6128;59.340;18.040;2023-08-17T02:54:36;17.90;99.90
12130;DHT22;6128;59.340;18.040;2023-08-17T02:57:03;17.80;99.90
12130;DHT22;6128;59.340;18.040;2023-08-17T02:59:30;17.80;99.90
12130;DHT22;6128;59.340;18.040;2023-08-17T03:01:58;17.80;99.90
12130;DHT22;6128;59.340;18.040;2023-08-17T03:04:26;17.70;99.90
12130;DHT22;6128;59.340;18.040;2023-08-17T03:06:53;17.70;99.90
12130;DHT22;6128;59.340;18.040;2023-08-17T03:09:20;17.70;99.90
12130;DHT22;6128;59.340;18.040;2023-08-17T03:11:47;17.70;99.90
12130;DHT22;6128;59.340;18.040;2023-08-17T03:14:14;17.60;99.90
12130;DHT22;6128;59.340;18.040;2023-08-17T03:16:41;17.60;99.90
12130;DHT22;6128;59.340;18.040;2023-08-17T03:19:08;17.50;99.90
12130;DHT22;6128;59.340;18.040;2023-08-17T03:21:38;17.50;99.90
12130;DHT22;6128;59.340;18.040;2023-08-17T03:24:06;17.50;99.90
12130;DHT22;6128;59.340;18.040;2023-08-17T03:26:33;17.40;99.90
12130;DHT22;6128;59.340;18.040;2023-08-17T03:29:00;17.40;99.90
12130;DHT22;6128;59.340;18.040;2023-08-17T03:31:28;17.40;99.90
12130;DHT22;6128;59.340;18.040;2023-08-17T03:33:55;17.40;99.90
12130;DHT22;6128;59.340;18.040;2023-08-17T03:36:22;17.50;99.90
12130;DHT22;6128;59.340;18.040;2023-08-17T03:38:50;17.50;99.90
12130;DHT22;6128;59.340;18.040;2023-08-17T03:41:18;17.50;99.90
12130;DHT22;6128;59.340;18.040;2023-08-17T03:43:45;17.60;99.90
12130;DHT22;6128;59.340;18.040;2023-08-17T03:46:12;17.50;99.90
12130;DHT22;6128;59.340;18.040;2023-08-17T03:48:39;17.60;99.90
12130;DHT22;6128;59.340;18.040;2023-08-17T03:51:06;17.60;99.90
12130;DHT22;6128;59.340;18.040;2023-08-17T03:53:33;17.70;99.90
12130;DHT22;6128;59.340;18.040;2023-08-17T03:56:01;17.70;99.90
12130;DHT22;6128;59.340;18.040;2023-08-17T03:58:28;17.70;99.90
12130;DHT22;6128;59.340;18.040;2023-08-17T04:01:00;17.70;99.90
12130;DHT22;6128;59.340;18.040;2023-08-17T04:03:27;17.70;99.90
12130;DHT22;6128;59.340;18.040;2023-08-17T04:05:54;17.70;99.90
12130;DHT22;6128;59.340;18.040;2023-08-17T04:08:21;17.70;99.90
12130;DHT22;6128;59.340;18.040;2023-08-17T04:10:48;17.70;99.90
12130;DHT22;6128;59.340;18.040;2023-08-17T04:13:17;17.80;99.90
12130;DHT22;6128;59.340;18.040;2023-08-17T04:15:44;17.80;99.90
12130;DHT22;6128;59.340;18.040;2023-08-17T04:18:11;17.80;99.90
12130;DHT22;6128;59.340;18.040;2023-08-17T04:20:38;17.80;99.90
12130;DHT22;6128;59.340;18.040;2023-08-17T04:23:05;17.80;99.90
12130;DHT22;6128;59.340;18.040;2023-08-17T04:25:32;17.80;99.90
12130;DHT22;6128;59.340;18.040;2023-08-17T04:27:59;17.80;99.90
12130;DHT22;6128;59.340;18.040;2023-08-17T04:30:28;17.80;99.90
12130;DHT22;6128;59.340;18.040;2023-08-17T04:32:55;17.90;99.90
12130;DHT22;6128;59.340;18.040;2023-08-17T04:35:22;18.00;99.90
12130;DHT22;6128;59.340;18.040;2023-08-17T04:37:49;18.00;99.90
12130;DHT22;6128;59.340;18.040;2023-08-17T04:40:16;18.00;99.90
12130;DHT22;6128;59.340;18.040;2023-08-17T04:42:43;18.00;99.90
12130;DHT22;6128;59.340;18.040;2023-08-17T04:45:10;18.00;99.90
12130;DHT22;6128;59.340;18.040;2023-08-17T04:47:39;18.10;99.90
12130;DHT22;6128;59.340;18.040;2023-08-17T04:50:07;18.10;99.90
12130;DHT22;6128;59.340;18.040;2023-08-17T04:52:34;18.10;99.90
12130;DHT22;6128;59.340;18.040;2023-08-17T04:55:01;18.10;99.90
12130;DHT22;6128;59.340;18.040;2023-08-17T04:57:29;18.20;99.90
12130;DHT22;6128;59.340;18.040;2023-08-17T04:59:56;18.10;99.90
12130;DHT22;6128;59.340;18.040;2023-08-17T05:02:23;18.10;99.90
12130;DHT22;6128;59.340;18.040;2023-08-17T05:04:52;18.10;99.90
12130;DHT22;6128;59.340;18.040;2023-08-17T05:07:19;18.10;99.90
12130;DHT22;6128;59.340;18.040;2023-08-17T05:09:46;18.10;99.90
12130;DHT22;6128;59.340;18.040;2023-08-17T05:12:13;18.00;99.90
12130;DHT22;6128;59.340;18.040;2023-08-17T05:14:40;18.00;99.90
12130;DHT22;6128;59.340;18.040;2023-08-17T05:17:07;18.00;99.90
12130;DHT22;6128;59.340;18.040;2023-08-17T05:19:34;18.10;99.90
12130;DHT22;6128;59.340;18.040;2023-08-17T05:22:05;18.10;99.90
12130;DHT22;6128;59.340;18.040;2023-08-17T05:24:32;18.20;99.90
12130;DHT22;6128;59.340;18.040;2023-08-17T05:26:59;18.30;99.90
12130;DHT22;6128;59.340;18.040;2023-08-17T05:29:26;18.40;99.90
12130;DHT22;6128;59.340;18.040;2023-08-17T05:31:53;18.40;99.90
12130;DHT22;6128;59.340;18.040;2023-08-17T05:34:20;18.40;99.90
12130;DHT22;6128;59.340;18.040;2023-08-17T05:36:47;18.50;99.90
12130;DHT22;6128;59.340;18.040;2023-08-17T05:39:16;18.40;99.90
12130;DHT22;6128;59.340;18.040;2023-08-17T05:41:43;18.20;99.90
12130;DHT22;6128;59.340;18.040;2023-08-17T05:44:10;18.10;99.90
12130;DHT22;6128;59.340;18.040;2023-08-17T05:46:38;18.20;99.90
12130;DHT22;6128;59.340;18.040;2023-08-17T05:49:05;18.20;99.90
12130;DHT22;6128;59.340;18.040;2023-08-17T05:51:32;18.10;99.90
12130;DHT22;6128;59.340;18.040;2023-08-17T05:53:59;18.20;99.90
12130;DHT22;6128;59.340;18.040;2023-08-17T05:56:28;18.30;99.90
12130;DHT22;6128;59.340;18.040;2023-08-17T05:58:55;18.20;99.90
12130;DHT22;6128;59.340;18.040;2023-08-17T06:01:22;18.00;99.90
12130;DHT22;6128;59.340;18.040;2023-08-17T06:03:49;18.10;99.90
12130;DHT22;6128;59.340;18.040;2023-08-17T06:06:16;18.10;99.90
12130;DHT22;6128;59.340;18.040;2023-08-17T06:08:43;18.20;99.90
12130;DHT22;6128;59.340;18.040;2023-08-17T06:11:10;18.20;99.90
12130;DHT22;6128;59.340;18.040;2023-08-17T06:13:39;18.30;99.90
12130;DHT22;6128;59.340;18.040;2023-08-17T06:16:06;18.50;99.90
12130;DHT22;6128;59.340;18.040;2023-08-17T06:18:33;18.50;99.90
12130;DHT22;6128;59.340;18.040;2023-08-17T06:21:00;18.70;99.90
12130;DHT22;6128;59.340;18.040;2023-08-17T06:23:27;18.80;99.90
12130;DHT22;6128;59.340;18.040;2023-08-17T06:25:56;18.90;99.90
12130;DHT22;6128;59.340;18.040;2023-08-17T06:28:24;19.10;99.90
12130;DHT22;6128;59.340;18.040;2023-08-17T06:30:53;19.40;99.90
12130;DHT22;6128;59.340;18.040;2023-08-17T06:33:20;19.70;99.90
12130;DHT22;6128;59.340;18.040;2023-08-17T06:35:48;20.30;99.90
12130;DHT22;6128;59.340;18.040;2023-08-17T06:38:15;20.90;99.90
12130;DHT22;6128;59.340;18.040;2023-08-17T06:40:42;21.10;99.90
12130;DHT22;6128;59.340;18.040;2023-08-17T06:43:10;21.20;99.90
12130;DHT22;6128;59.340;18.040;2023-08-17T06:45:37;21.40;99.90
12130;DHT22;6128;59.340;18.040;2023-08-17T06:48:06;21.30;99.90
12130;DHT22;6128;59.340;18.040;2023-08-17T06:50:33;21.10;99.90
12130;DHT22;6128;59.340;18.040;2023-08-17T06:53:01;21.10;99.90
12130;DHT22;6128;59.340;18.040;2023-08-17T06:55:28;21.20;99.90
12130;DHT22;6128;59.340;18.040;2023-08-17T06:57:55;21.40;99.90
12130;DHT22;6128;59.340;18.040;2023-08-17T07:00:22;21.50;99.90
12130;DHT22;6128;59.340;18.040;2023-08-17T07:02:50;21.50;99.90
12130;DHT22;6128;59.340;18.040;2023-08-17T07:05:19;21.30;99.90
12130;DHT22;6128;59.340;18.040;2023-08-17T07:07:46;21.50;99.90
12130;DHT22;6128;59.340;18.040;2023-08-17T07:10:13;21.40;99.90
12130;DHT22;6128;59.340;18.040;2023-08-17T07:12:41;21.30;99.90
12130;DHT22;6128;59.340;18.040;2023-08-17T07:15:08;21.40;99.90
12130;DHT22;6128;59.340;18.040;2023-08-17T07:17:35;21.50;99.90
12130;DHT22;6128;59.340;18.040;2023-08-17T07:20:03;21.60;99.90
12130;DHT22;6128;59.340;18.040;2023-08-17T07:22:34;21.30;99.90
12130;DHT22;6128;59.340;18.040;2023-08-17T07:25:01;21.60;99.90
12130;DHT22;6128;59.340;18.040;2023-08-17T07:27:29;21.90;99.90
12130;DHT22;6128;59.340;18.040;2023-08-17T07:29:56;22.00;99.90
12130;DHT22;6128;59.340;18.040;2023-08-17T07:32:23;22.10;99.90
12130;DHT22;6128;59.340;18.040;2023-08-17T07:34:51;22.40;99.90
12130;DHT22;6128;59.340;18.040;2023-08-17T07:37:19;22.80;99.90
12130;DHT22;6128;59.340;18.040;2023-08-17T07:39:48;23.20;99.90
12130;DHT22;6128;59.340;18.040;2023-08-17T07:42:15;23.80;99.90
12130;DHT22;6128;59.340;18.040;2023-08-17T07:44:42;24.10;99.90
12130;DHT22;6128;59.340;18.040;2023-08-17T07:47:09;24.80;99.90
12130;DHT22;6128;59.340;18.040;2023-08-17T07:49:36;25.30;99.90
12130;DHT22;6128;59.340;18.040;2023-08-17T07:52:03;25.50;99.90
12130;DHT22;6128;59.340;18.040;2023-08-17T07:54:31;25.30;99.90
12130;DHT22;6128;59.340;18.040;2023-08-17T07:57:00;25.60;99.90
12130;DHT22;6128;59.340;18.040;2023-08-17T07:59:28;25.60;99.90
12130;DHT22;6128;59.340;18.040;2023-08-17T08:01:55;25.50;99.90
12130;DHT22;6128;59.340;18.040;2023-08-17T08:04:22;25.00;99.90
12130;DHT22;6128;59.340;18.040;2023-08-17T08:06:50;25.10;99.90
12130;DHT22;6128;59.340;18.040;2023-08-17T08:09:17;25.10;99.90
12130;DHT22;6128;59.340;18.040;2023-08-17T08:11:44;24.90;99.90
12130;DHT22;6128;59.340;18.040;2023-08-17T08:14:12;24.70;99.90
12130;DHT22;6128;59.340;18.040;2023-08-17T08:16:39;25.00;99.90
12130;DHT22;6128;59.340;18.040;2023-08-17T08:19:06;24.80;99.90
12130;DHT22;6128;59.340;18.040;2023-08-17T08:21:33;25.10;99.90
12130;DHT22;6128;59.340;18.040;2023-08-17T08:24:00;25.50;99.90
12130;DHT22;6128;59.340;18.040;2023-08-17T08:26:27;25.00;99.90
12130;DHT22;6128;59.340;18.040;2023-08-17T08:28:54;24.40;99.90
12130;DHT22;6128;59.340;18.040;2023-08-17T08:31:23;23.80;99.90
12130;DHT22;6128;59.340;18.040;2023-08-17T08:33:50;23.30;99.90
12130;DHT22;6128;59.340;18.040;2023-08-17T08:36:18;23.00;99.90
12130;DHT22;6128;59.340;18.040;2023-08-17T08:38:45;23.00;99.90
12130;DHT22;6128;59.340;18.040;2023-08-17T08:41:12;22.90;99.90
12130;DHT22;6128;59.340;18.040;2023-08-17T08:43:39;22.70;99.90
12130;DHT22;6128;59.340;18.040;2023-08-17T08:46:06;22.30;99.90
12130;DHT22;6128;59.340;18.040;2023-08-17T08:48:35;22.00;99.90
12130;DHT22;6128;59.340;18.040;2023-08-17T08:51:08;22.50;99.90
12130;DHT22;6128;59.340;18.040;2023-08-17T08:53:37;22.50;99.90
12130;DHT22;6128;59.340;18.040;2023-08-17T08:56:08;22.80;99.90
12130;DHT22;6128;59.340;18.040;2023-08-17T08:58:37;22.60;99.90
12130;DHT22;6128;59.340;18.040;2023-08-17T09:01:06;22.70;99.90
12130;DHT22;6128;59.340;18.040;2023-08-17T09:03:36;23.00;99.90
12130;DHT22;6128;59.340;18.040;2023-08-17T09:06:04;22.60;99.90
12130;DHT22;6128;59.340;18.040;2023-08-17T09:08:31;22.70;99.90
12130;DHT22;6128;59.340;18.040;2023-08-17T09:10:58;22.60;99.90
12130;DHT22;6128;59.340;18.040;2023-08-17T09:13:25;22.90;99.90
12130;DHT22;6128;59.340;18.040;2023-08-17T09:15:52;23.80;99.90
12130;DHT22;6128;59.340;18.040;2023-08-17T09:18:20;24.70;99.90
12130;DHT22;6128;59.340;18.040;2023-08-17T09:20:51;25.10;99.90
12130;DHT22;6128;59.340;18.040;2023-08-17T09:23:21;25.00;99.90
12130;DHT22;6128;59.340;18.040;2023-08-17T09:25:49;25.60;99.90
12130;DHT22;6128;59.340;18.040;2023-08-17T09:28:18;25.50;99.90
12130;DHT22;6128;59.340;18.040;2023-08-17T09:30:59;25.20;99.90
12130;DHT22;6128;59.340;18.040;2023-08-17T09:33:28;24.70;99.90
12130;DHT22;6128;59.340;18.040;2023-08-17T09:35:58;24.30;99.90
12130;DHT22;6128;59.340;18.040;2023-08-17T09:38:25;24.00;99.90
12130;DHT22;6128;59.340;18.040;2023-08-17T09:40:53;23.10;99.90
12130;DHT22;6128;59.340;18.040;2023-08-17T09:43:20;22.80;99.90
12130;DHT22;6128;59.340;18.040;2023-08-17T09:45:48;22.90;99.90
12130;DHT22;6128;59.340;18.040;2023-08-17T09:48:16;23.00;99.90
12130;DHT22;6128;59.340;18.040;2023-08-17T09:50:45;22.70;99.90
12130;DHT22;6128;59.340;18.040;2023-08-17T09:53:15;22.40;99.90
12130;DHT22;6128;59.340;18.040;2023-08-17T09:55:43;22.20;99.90
12130;DHT22;6128;59.340;18.040;2023-08-17T09:58:10;22.10;99.90
12130;DHT22;6128;59.340;18.040;2023-08-17T10:00:43;22.30;99.90
12130;DHT22;6128;59.340;18.040;2023-08-17T10:03:11;22.30;99.90
12130;DHT22;6128;59.340;18.040;2023-08-17T10:05:42;22.40;99.90
12130;DHT22;6128;59.340;18.040;2023-08-17T10:08:11;22.60;99.90
12130;DHT22;6128;59.340;18.040;2023-08-17T10:10:45;22.80;99.90
12130;DHT22;6128;59.340;18.040;2023-08-17T10:13:18;22.80;99.90
12130;DHT22;6128;59.340;18.040;2023-08-17T10:15:51;23.10;99.90
12130;DHT22;6128;59.340;18.040;2023-08-17T10:18:27;23.40;99.90
12130;DHT22;6128;59.340;18.040;2023-08-17T10:21:00;23.40;99.90
12130;DHT22;6128;59.340;18.040;2023-08-17T10:23:30;23.60;99.90
12130;DHT22;6128;59.340;18.040;2023-08-17T10:26:01;23.20;99.90
12130;DHT22;6128;59.340;18.040;2023-08-17T10:28:30;23.10;99.90
12130;DHT22;6128;59.340;18.040;2023-08-17T10:30:58;23.00;99.90
12130;DHT22;6128;59.340;18.040;2023-08-17T10:33:26;23.20;99.90
12130;DHT22;6128;59.340;18.040;2023-08-17T10:35:54;23.40;99.90
12130;DHT22;6128;59.340;18.040;2023-08-17T10:38:22;23.40;99.90
12130;DHT22;6128;59.340;18.040;2023-08-17T10:41:10;23.50;99.90
12130;DHT22;6128;59.340;18.040;2023-08-17T10:43:54;23.60;99.90
12130;DHT22;6128;59.340;18.040;2023-08-17T10:46:21;23.50;99.90
12130;DHT22;6128;59.340;18.040;2023-08-17T10:48:48;23.40;99.90
12130;DHT22;6128;59.340;18.040;2023-08-17T10:51:15;23.10;99.90
12130;DHT22;6128;59.340;18.040;2023-08-17T10:53:52;22.70;99.90
12130;DHT22;6128;59.340;18.040;2023-08-17T10:56:27;22.50;99.90
12130;DHT22;6128;59.340;18.040;2023-08-17T10:58:54;22.60;99.90
12130;DHT22;6128;59.340;18.040;2023-08-17T11:01:32;22.90;99.90
12130;DHT22;6128;59.340;18.040;2023-08-17T11:04:13;22.60;99.90
12130;DHT22;6128;59.340;18.040;2023-08-17T11:06:42;22.60;99.90
12130;DHT22;6128;59.340;18.040;2023-08-17T11:09:10;22.80;99.90
12130;DHT22;6128;59.340;18.040;2023-08-17T11:11:38;22.90;99.90
12130;DHT22;6128;59.340;18.040;2023-08-17T11:14:05;22.70;99.90
12130;DHT22;6128;59.340;18.040;2023-08-17T11:16:33;22.60;99.90
12130;DHT22;6128;59.340;18.040;2023-08-17T11:19:00;22.70;99.90
12130;DHT22;6128;59.340;18.040;2023-08-17T11:21:27;23.00;99.90
12130;DHT22;6128;59.340;18.040;2023-08-17T11:23:58;23.20;99.90
12130;DHT22;6128;59.340;18.040;2023-08-17T11:26:25;23.40;99.90
12130;DHT22;6128;59.340;18.040;2023-08-17T11:28:54;23.10;99.90
12130;DHT22;6128;59.340;18.040;2023-08-17T11:31:22;22.90;99.90
12130;DHT22;6128;59.340;18.040;2023-08-17T11:33:49;22.70;99.90
12130;DHT22;6128;59.340;18.040;2023-08-17T11:36:16;22.50;99.90
12130;DHT22;6128;59.340;18.040;2023-08-17T11:38:43;22.30;99.90
12130;DHT22;6128;59.340;18.040;2023-08-17T11:41:11;22.30;99.90
12130;DHT22;6128;59.340;18.040;2023-08-17T11:43:39;22.50;99.90
12130;DHT22;6128;59.340;18.040;2023-08-17T11:46:08;22.40;99.90
12130;DHT22;6128;59.340;18.040;2023-08-17T11:48:36;22.50;99.90
12130;DHT22;6128;59.340;18.040;2023-08-17T11:51:03;22.70;99.90
12130;DHT22;6128;59.340;18.040;2023-08-17T11:53:34;22.80;99.90
12130;DHT22;6128;59.340;18.040;2023-08-17T11:56:01;23.00;99.90
12130;DHT22;6128;59.340;18.040;2023-08-17T11:58:42;23.20;99.90
12130;DHT22;6128;59.340;18.040;2023-08-17T12:01:11;23.20;99.90
12130;DHT22;6128;59.340;18.040;2023-08-17T12:03:39;23.30;99.90
12130;DHT22;6128;59.340;18.040;2023-08-17T12:06:06;23.30;99.90
12130;DHT22;6128;59.340;18.040;2023-08-17T12:08:34;23.30;99.90
12130;DHT22;6128;59.340;18.040;2023-08-17T12:11:02;23.20;99.90
12130;DHT22;6128;59.340;18.040;2023-08-17T12:13:30;23.00;99.90
12130;DHT22;6128;59.340;18.040;2023-08-17T12:15:57;23.10;99.90
12130;DHT22;6128;59.340;18.040;2023-08-17T12:18:26;23.00;99.90
12130;DHT22;6128;59.340;18.040;2023-08-17T12:20:53;23.00;99.90
12130;DHT22;6128;59.340;18.040;2023-08-17T12:23:20;23.20;99.90
12130;DHT22;6128;59.340;18.040;2023-08-17T12:25:52;22.90;99.90
12130;DHT22;6128;59.340;18.040;2023-08-17T12:28:19;22.90;99.90
12130;DHT22;6128;59.340;18.040;2023-08-17T12:30:46;23.10;99.90
12130;DHT22;6128;59.340;18.040;2023-08-17T12:33:13;23.30;99.90
12130;DHT22;6128;59.340;18.040;2023-08-17T12:35:42;23.50;99.90
12130;DHT22;6128;59.340;18.040;2023-08-17T12:38:09;23.50;99.90
12130;DHT22;6128;59.340;18.040;2023-08-17T12:40:36;23.40;99.90
12130;DHT22;6128;59.340;18.040;2023-08-17T12:43:03;23.40;99.90
12130;DHT22;6128;59.340;18.040;2023-08-17T12:45:30;23.30;99.90
12130;DHT22;6128;59.340;18.040;2023-08-17T12:47:57;23.20;99.90
12130;DHT22;6128;59.340;18.040;2023-08-17T12:50:24;23.20;99.90
12130;DHT22;6128;59.340;18.040;2023-08-17T12:52:53;23.40;99.90
12130;DHT22;6128;59.340;18.040;2023-08-17T12:55:20;23.50;99.90
12130;DHT22;6128;59.340;18.040;2023-08-17T12:57:47;23.50;99.90
12130;DHT22;6128;59.340;18.040;2023-08-17T13:00:15;23.50;99.90
12130;DHT22;6128;59.340;18.040;2023-08-17T13:02:42;23.60;99.90
12130;DHT22;6128;59.340;18.040;2023-08-17T13:05:11;23.40;99.90
12130;DHT22;6128;59.340;18.040;2023-08-17T13:07:38;23.20;99.90
12130;DHT22;6128;59.340;18.040;2023-08-17T13:10:07;23.10;99.90
12130;DHT22;6128;59.340;18.040;2023-08-17T13:12:34;23.00;99.90
12130;DHT22;6128;59.340;18.040;2023-08-17T13:15:01;23.20;99.90
12130;DHT22;6128;59.340;18.040;2023-08-17T13:17:28;23.20;99.90
12130;DHT22;6128;59.340;18.040;2023-08-17T13:19:55;23.00;99.90
12130;DHT22;6128;59.340;18.040;2023-08-17T13:22:22;23.00;99.90
12130;DHT22;6128;59.340;18.040;2023-08-17T13:24:49;22.80;99.90
12130;DHT22;6128;59.340;18.040;2023-08-17T13:27:17;23.00;99.90
12130;DHT22;6128;59.340;18.040;2023-08-17T13:29:45;23.00;99.90
12130;DHT22;6128;59.340;18.040;2023-08-17T13:32:12;23.00;99.90
12130;DHT22;6128;59.340;18.040;2023-08-17T13:34:39;22.90;99.90
12130;DHT22;6128;59.340;18.040;2023-08-17T13:37:06;22.90;99.90
12130;DHT22;6128;59.340;18.040;2023-08-17T13:39:33;22.90;99.90
12130;DHT22;6128;59.340;18.040;2023-08-17T13:42:00;22.90;99.90
12130;DHT22;6128;59.340;18.040;2023-08-17T13:44:28;23.00;99.90
12130;DHT22;6128;59.340;18.040;2023-08-17T13:46:55;22.90;99.90
12130;DHT22;6128;59.340;18.040;2023-08-17T13:49:22;23.00;99.90
12130;DHT22;6128;59.340;18.040;2023-08-17T13:51:49;23.20;99.90
12130;DHT22;6128;59.340;18.040;2023-08-17T13:54:17;22.90;99.90
12130;DHT22;6128;59.340;18.040;2023-08-17T13:56:44;22.90;99.90
12130;DHT22;6128;59.340;18.040;2023-08-17T13:59:11;23.00;99.90
12130;DHT22;6128;59.340;18.040;2023-08-17T14:01:39;23.00;99.90
12130;DHT22;6128;59.340;18.040;2023-08-17T14:04:06;22.90;99.90
12130;DHT22;6128;59.340;18.040;2023-08-17T14:06:37;22.90;99.90
12130;DHT22;6128;59.340;18.040;2023-08-17T14:09:04;22.90;99.90
12130;DHT22;6128;59.340;18.040;2023-08-17T14:11:32;22.90;99.90
12130;DHT22;6128;59.340;18.040;2023-08-17T14:13:59;22.90;99.90
12130;DHT22;6128;59.340;18.040;2023-08-17T14:16:26;23.00;99.90
12130;DHT22;6128;59.340;18.040;2023-08-17T14:18:54;22.80;99.90
12130;DHT22;6128;59.340;18.040;2023-08-17T14:21:21;22.70;99.90
12130;DHT22;6128;59.340;18.040;2023-08-17T14:23:49;22.80;99.90
12130;DHT22;6128;59.340;18.040;2023-08-17T14:26:16;22.70;99.90
12130;DHT22;6128;59.340;18.040;2023-08-17T14:28:43;22.60;99.90
12130;DHT22;6128;59.340;18.040;2023-08-17T14:31:10;22.60;99.90
12130;DHT22;6128;59.340;18.040;2023-08-17T14:33:41;22.60;99.90
12130;DHT22;6128;59.340;18.040;2023-08-17T14:36:09;22.60;99.90
12130;DHT22;6128;59.340;18.040;2023-08-17T14:38:36;22.70;99.90
12130;DHT22;6128;59.340;18.040;2023-08-17T14:41:03;22.50;99.90
12130;DHT22;6128;59.340;18.040;2023-08-17T14:43:32;22.60;99.90
12130;DHT22;6128;59.340;18.040;2023-08-17T14:45:59;22.70;99.90
12130;DHT22;6128;59.340;18.040;2023-08-17T14:48:26;22.60;99.90
12130;DHT22;6128;59.340;18.040;2023-08-17T14:50:53;22.80;99.90
12130;DHT22;6128;59.340;18.040;2023-08-17T14:53:22;22.80;99.90
12130;DHT22;6128;59.340;18.040;2023-08-17T14:55:49;23.00;99.90
12130;DHT22;6128;59.340;18.040;2023-08-17T14:58:16;23.10;99.90
12130;DHT22;6128;59.340;18.040;2023-08-17T15:00:44;23.10;99.90
12130;DHT22;6128;59.340;18.040;2023-08-17T15:03:11;22.80;99.90
12130;DHT22;6128;59.340;18.040;2023-08-17T15:05:38;22.60;99.90
12130;DHT22;6128;59.340;18.040;2023-08-17T15:08:05;22.70;99.90
12130;DHT22;6128;59.340;18.040;2023-08-17T15:10:33;22.70;99.90
12130;DHT22;6128;59.340;18.040;2023-08-17T15:13:01;22.70;99.90
12130;DHT22;6128;59.340;18.040;2023-08-17T15:15:28;22.60;99.90
12130;DHT22;6128;59.340;18.040;2023-08-17T15:17:55;22.70;99.90
12130;DHT22;6128;59.340;18.040;2023-08-17T15:20:22;22.60;99.90
12130;DHT22;6128;59.340;18.040;2023-08-17T15:22:49;22.40;99.90
12130;DHT22;6128;59.340;18.040;2023-08-17T15:25:17;22.50;99.90
12130;DHT22;6128;59.340;18.040;2023-08-17T15:27:45;22.60;99.90
12130;DHT22;6128;59.340;18.040;2023-08-17T15:30:12;22.60;99.90
12130;DHT22;6128;59.340;18.040;2023-08-17T15:32:40;22.50;99.90
12130;DHT22;6128;59.340;18.040;2023-08-17T15:35:09;22.50;99.90